Time;durP1;ratioP1;P1;durP2;ratioP2;P2;SDS_P1;SDS_P2;PMS_P1;PMS_P2;Temp;Humidity;BMP_temperature;BMP_pressure;BME280_temperature;BME280_humidity;BME280_pressure;Samples;Min_cycle;Max_cycle;Signal;HPM_P1;HPM_P2
2024/01/18 00:01:52;;;;;;;41.70;22.48;;;;;;;-0.27;100.00;98643.84;4989587;28;20192;-69
2024/01/18 00:04:17;;;;;;;40.53;21.40;;;;;;;-0.27;100.00;98643.84;4989907;28;20577;-69
2024/01/18 00:06:43;;;;;;;38.42;21.88;;;;;;;-0.28;100.00;98642.19;4989804;28;20034;-69
2024/01/18 00:09:08;;;;;;;47.72;23.20;;;;;;;-0.24;100.00;98655.69;4990675;28;20046;-69
2024/01/18 00:11:33;;;;;;;37.83;19.75;;;;;;;-0.24;100.00;98659.09;4987367;28;20034;-69
2024/01/18 00:14:00;;;;;;;38.35;20.98;;;;;;;-0.23;100.00;98668.41;4987927;28;20045;-69
2024/01/18 00:16:25;;;;;;;44.13;22.63;;;;;;;-0.22;100.00;98681.94;4988993;28;22777;-69
2024/01/18 00:18:51;;;;;;;39.85;21.80;;;;;;;-0.23;100.00;98680.25;4990412;28;20038;-69
2024/01/18 00:21:16;;;;;;;40.17;21.60;;;;;;;-0.24;100.00;98689.53;4989045;28;20041;-69
2024/01/18 00:23:42;;;;;;;47.35;24.45;;;;;;;-0.22;100.00;98700.56;4982179;28;20030;-69
2024/01/18 00:26:07;;;;;;;45.35;21.77;;;;;;;-0.24;100.00;98706.47;4987110;28;20038;-69
2024/01/18 00:28:32;;;;;;;43.67;22.73;;;;;;;-0.23;100.00;98714.09;4988731;28;20046;-69
2024/01/18 00:30:58;;;;;;;40.63;22.88;;;;;;;-0.23;100.00;98720.88;4991972;28;20418;-69
2024/01/18 00:33:25;;;;;;;41.55;22.35;;;;;;;-0.24;100.00;98721.69;4991130;28;20041;-69
2024/01/18 00:35:50;;;;;;;49.83;24.05;;;;;;;-0.23;100.00;98733.56;4994757;28;20038;-69
2024/01/18 00:38:16;;;;;;;44.58;22.23;;;;;;;-0.24;100.00;98729.31;4997029;28;20422;-69
2024/01/18 00:40:42;;;;;;;44.08;23.73;;;;;;;-0.23;100.00;98731.88;4987988;28;20161;-69
2024/01/18 00:43:07;;;;;;;47.53;24.02;;;;;;;-0.24;100.00;98717.47;4990095;28;20133;-69
2024/01/18 00:45:32;;;;;;;47.80;24.38;;;;;;;-0.24;100.00;98709.00;4988394;28;20034;-68
2024/01/18 00:47:58;;;;;;;47.78;25.08;;;;;;;-0.23;100.00;98720.88;4989810;28;20031;-68
2024/01/18 00:50:23;;;;;;;43.95;23.83;;;;;;;-0.24;100.00;98731.84;4991312;28;20037;-69
2024/01/18 00:52:49;;;;;;;40.13;21.77;;;;;;;-0.26;100.00;98757.25;4990110;28;20408;-69
2024/01/18 00:55:14;;;;;;;48.75;25.00;;;;;;;-0.27;100.00;98764.88;4992972;28;20070;-69
2024/01/18 00:57:39;;;;;;;52.78;24.67;;;;;;;-0.28;100.00;98758.94;4991705;28;20038;-69
2024/01/18 01:00:05;;;;;;;48.42;24.65;;;;;;;-0.30;100.00;98753.00;4990052;28;20164;-69
2024/01/18 01:02:31;;;;;;;50.20;24.52;;;;;;;-0.30;100.00;98757.25;4993665;28;20037;-68
2024/01/18 01:04:56;;;;;;;52.25;26.15;;;;;;;-0.33;100.00;98749.63;4991690;28;20035;-69
2024/01/18 01:07:21;;;;;;;52.30;25.50;;;;;;;-0.35;100.00;98749.59;4987894;28;20257;-69
2024/01/18 01:09:47;;;;;;;39.50;22.45;;;;;;;-0.37;100.00;98748.75;4989758;28;20046;-69
2024/01/18 01:12:12;;;;;;;47.05;24.05;;;;;;;-0.35;100.00;98751.28;4986949;28;20054;-69
2024/01/18 01:14:38;;;;;;;47.85;23.10;;;;;;;-0.36;100.00;98762.31;4986874;28;20488;-68
2024/01/18 01:17:03;;;;;;;46.55;24.48;;;;;;;-0.39;100.00;98758.91;4985680;28;20472;-69
2024/01/18 01:19:28;;;;;;;46.05;24.88;;;;;;;-0.39;100.00;98756.34;4993355;28;20092;-69
2024/01/18 01:21:54;;;;;;;42.58;23.63;;;;;;;-0.38;100.00;98759.75;4989391;28;20104;-69
2024/01/18 01:24:19;;;;;;;45.65;24.42;;;;;;;-0.38;100.00;98764.81;4990134;28;20046;-69
2024/01/18 01:26:45;;;;;;;54.08;24.55;;;;;;;-0.38;100.00;98760.59;4985045;28;20029;-69
2024/01/18 01:29:11;;;;;;;48.78;24.38;;;;;;;-0.37;100.00;98761.47;4985684;28;20026;-68
2024/01/18 01:31:36;;;;;;;51.83;23.90;;;;;;;-0.39;100.00;98761.44;4990034;28;20476;-69
2024/01/18 01:34:02;;;;;;;48.22;25.38;;;;;;;-0.37;100.00;98771.59;4988337;28;20084;-69
2024/01/18 01:36:27;;;;;;;50.47;25.55;;;;;;;-0.38;100.00;98778.38;4988221;28;20030;-68
2024/01/18 01:38:53;;;;;;;42.75;22.38;;;;;;;-0.38;100.00;98782.59;4987503;28;20070;-68
2024/01/18 01:41:18;;;;;;;44.33;25.38;;;;;;;-0.38;100.00;98780.91;4988346;28;20031;-69
2024/01/18 01:44:00;;;;;;;38.58;22.38;;;;;;;-0.38;100.00;98780.91;4985060;28;20109;-67
2024/01/18 01:46:27;;;;;;;43.92;23.42;;;;;;;-0.38;100.00;98787.66;4986159;28;20039;-67
2024/01/18 01:49:05;;;;;;;49.00;22.75;;;;;;;-0.39;100.00;98788.50;4995426;28;20080;-66
2024/01/18 01:51:52;;;;;;;46.45;24.35;;;;;;;-0.41;100.00;98788.50;4992742;28;20050;-67
2024/01/18 01:54:21;;;;;;;43.17;23.35;;;;;;;-0.41;100.00;98790.19;4988146;28;20034;-67
2024/01/18 01:56:50;;;;;;;42.22;21.77;;;;;;;-0.41;100.00;98791.03;4985618;28;20502;-67
2024/01/18 01:59:17;;;;;;;36.25;21.58;;;;;;;-0.41;100.00;98795.28;4984660;28;20487;-67
2024/01/18 02:01:44;;;;;;;45.03;22.55;;;;;;;-0.42;100.00;98804.56;4989804;28;20049;-67
2024/01/18 02:04:11;;;;;;;42.05;21.17;;;;;;;-0.41;100.00;98811.34;4994562;28;20084;-67
2024/01/18 02:06:39;;;;;;;45.92;21.92;;;;;;;-0.41;100.00;98821.50;4993444;28;20640;-67
2024/01/18 02:09:05;;;;;;;40.97;22.25;;;;;;;-0.41;100.00;98825.72;4992316;28;20042;-67
2024/01/18 02:11:31;;;;;;;44.80;21.92;;;;;;;-0.40;100.00;98825.75;4988273;28;20031;-67
2024/01/18 02:13:57;;;;;;;41.33;21.15;;;;;;;-0.42;100.00;98824.88;4998750;28;20030;-67
2024/01/18 02:16:23;;;;;;;39.70;22.95;;;;;;;-0.42;100.00;98824.88;4991770;28;20491;-67
2024/01/18 02:18:48;;;;;;;35.53;20.10;;;;;;;-0.42;100.00;98822.34;4994715;28;20037;-67
2024/01/18 02:21:14;;;;;;;46.63;21.17;;;;;;;-0.43;100.00;98817.25;4988396;28;20050;-67
2024/01/18 02:23:46;;;;;;;40.25;20.58;;;;;;;-0.41;100.00;98818.09;4993704;28;20113;-67
2024/01/18 02:26:11;;;;;;;45.10;22.80;;;;;;;-0.40;100.00;98819.81;4989832;28;20076;-67
2024/01/18 02:28:37;;;;;;;38.08;21.08;;;;;;;-0.42;100.00;98811.31;4989747;28;20503;-66
2024/01/18 02:31:02;;;;;;;48.00;21.13;;;;;;;-0.43;100.00;98813.03;4996824;28;20037;-67
2024/01/18 02:33:28;;;;;;;40.65;20.52;;;;;;;-0.43;100.00;98819.81;4994588;28;20383;-66
2024/01/18 02:35:54;;;;;;;39.97;21.08;;;;;;;-0.43;100.00;98812.19;4991054;28;20161;-67
2024/01/18 02:38:20;;;;;;;47.72;21.67;;;;;;;-0.44;100.00;98808.81;4990785;28;20030;-67
2024/01/18 02:40:45;;;;;;;46.42;21.73;;;;;;;-0.45;100.00;98814.72;4989763;28;20479;-67
2024/01/18 02:43:10;;;;;;;37.22;21.35;;;;;;;-0.47;100.00;98821.47;4988703;28;20039;-67
2024/01/18 02:45:36;;;;;;;44.00;21.70;;;;;;;-0.46;100.00;98822.31;4992201;28;20107;-67
2024/01/18 02:48:02;;;;;;;43.30;21.83;;;;;;;-0.47;100.00;98818.94;4991300;28;20519;-67
2024/01/18 02:50:28;;;;;;;38.22;19.80;;;;;;;-0.47;100.00;98828.22;4991013;28;20035;-67
2024/01/18 02:52:53;;;;;;;45.15;22.15;;;;;;;-0.48;100.00;98822.31;4997924;28;20394;-67
2024/01/18 02:55:19;;;;;;;40.92;21.60;;;;;;;-0.46;100.00;98824.88;4990040;28;20042;-67
2024/01/18 02:57:44;;;;;;;39.35;21.05;;;;;;;-0.46;100.00;98825.72;4990299;28;20046;-67
2024/01/18 03:00:11;;;;;;;41.70;22.17;;;;;;;-0.46;100.00;98832.47;4997524;28;20041;-67
2024/01/18 03:02:37;;;;;;;48.97;22.90;;;;;;;-0.46;100.00;98824.88;4991198;28;20037;-67
2024/01/18 03:05:02;;;;;;;44.80;21.65;;;;;;;-0.49;100.00;98827.38;4991524;28;20198;-67
2024/01/18 03:07:28;;;;;;;39.28;21.85;;;;;;;-0.48;100.00;98827.38;4987031;28;20046;-68
2024/01/18 03:09:54;;;;;;;45.70;22.58;;;;;;;-0.50;100.00;98833.28;4988673;28;20034;-67
2024/01/18 03:12:19;;;;;;;48.90;21.83;;;;;;;-0.50;100.00;98826.53;4987650;28;20377;-67
2024/01/18 03:14:45;;;;;;;49.20;23.02;;;;;;;-0.50;100.00;98825.69;4990203;28;20041;-66
2024/01/18 03:17:10;;;;;;;44.72;22.65;;;;;;;-0.58;100.00;98827.34;4989541;28;20093;-67
2024/01/18 03:19:36;;;;;;;40.33;21.48;;;;;;;-0.59;100.00;98828.19;4991210;28;20189;-67
2024/01/18 03:22:01;;;;;;;47.95;22.58;;;;;;;-0.59;100.00;98851.00;4992982;28;20169;-67
2024/01/18 03:24:27;;;;;;;44.28;22.35;;;;;;;-0.64;100.00;98840.00;4987639;28;20038;-67
2024/01/18 03:26:52;;;;;;;44.78;23.88;;;;;;;-0.67;100.00;98842.53;4986707;28;20381;-67
2024/01/18 03:29:17;;;;;;;43.00;22.30;;;;;;;-0.66;100.00;98846.75;4996952;28;20523;-67
2024/01/18 03:31:43;;;;;;;44.33;20.85;;;;;;;-0.71;100.00;98849.25;4993108;28;20049;-67
2024/01/18 03:34:08;;;;;;;41.95;22.42;;;;;;;-0.69;100.00;98850.09;4996579;28;20030;-67
2024/01/18 03:36:34;;;;;;;42.40;23.45;;;;;;;-0.70;100.00;98858.56;4983905;28;20050;-67
2024/01/18 03:38:59;;;;;;;41.50;23.33;;;;;;;-0.71;100.00;98851.78;4989366;28;20078;-67
2024/01/18 03:41:25;;;;;;;42.85;22.45;;;;;;;-0.70;100.00;98850.97;4986516;28;20376;-67
2024/01/18 03:43:50;;;;;;;43.05;23.35;;;;;;;-0.71;100.00;98843.34;4986644;28;20130;-67
2024/01/18 03:46:16;;;;;;;43.40;25.05;;;;;;;-0.71;100.00;98844.19;4993140;28;20030;-67
2024/01/18 03:48:41;;;;;;;45.35;25.10;;;;;;;-0.69;100.00;98844.22;4988539;28;20046;-67
2024/01/18 03:51:07;;;;;;;45.92;24.95;;;;;;;-0.71;100.00;98850.94;4989167;28;20085;-67
2024/01/18 03:53:32;;;;;;;43.60;24.05;;;;;;;-0.75;100.00;98837.38;4989091;28;20081;-67
2024/01/18 03:55:58;;;;;;;45.50;24.27;;;;;;;-0.74;100.00;98840.78;4983930;28;20097;-67
2024/01/18 03:58:23;;;;;;;44.97;23.35;;;;;;;-0.76;100.00;98848.41;4986460;28;20070;-67
2024/01/18 04:00:48;;;;;;;48.28;24.55;;;;;;;-0.81;100.00;98841.59;4993036;28;20039;-67
2024/01/18 04:03:14;;;;;;;45.78;23.95;;;;;;;-0.86;100.00;98856.78;4990345;28;20145;-67
2024/01/18 04:05:39;;;;;;;42.58;23.20;;;;;;;-0.85;100.00;98855.09;4990217;28;20119;-67
2024/01/18 04:08:05;;;;;;;40.08;20.88;;;;;;;-0.88;100.00;98853.38;4993491;28;20106;-67
2024/01/18 04:10:30;;;;;;;41.20;21.02;;;;;;;-0.88;100.00;98847.47;4994693;28;20132;-64
2024/01/18 04:12:56;;;;;;;38.17;21.67;;;;;;;-0.91;100.00;98848.31;4990478;28;20122;-67
2024/01/18 04:15:21;;;;;;;38.53;19.08;;;;;;;-0.95;100.00;98861.78;4983866;28;20589;-64
2024/01/18 04:17:47;;;;;;;32.08;18.20;;;;;;;-0.96;100.00;98867.72;4987911;28;20053;-64
2024/01/18 04:20:16;;;;;;;40.33;18.90;;;;;;;-0.96;100.00;98866.00;4992435;28;20045;-64
2024/01/18 04:22:43;;;;;;;38.97;19.52;;;;;;;-0.97;100.00;98874.47;4989337;28;20703;-64
2024/01/18 04:25:09;;;;;;;33.55;19.42;;;;;;;-0.97;100.00;98879.53;4990018;28;20330;-63
2024/01/18 04:27:35;;;;;;;39.13;20.77;;;;;;;-0.95;100.00;98882.06;4981376;28;20600;-64
2024/01/18 04:30:00;;;;;;;32.22;18.02;;;;;;;-0.93;100.00;98885.50;4990587;28;20091;-64
2024/01/18 04:32:26;;;;;;;34.00;19.23;;;;;;;-0.95;100.00;98890.53;4991421;28;20141;-64
2024/01/18 04:34:51;;;;;;;32.72;19.60;;;;;;;-0.95;100.00;98893.06;4987429;28;20034;-64
2024/01/18 04:37:17;;;;;;;37.88;20.77;;;;;;;-0.91;100.00;98888.00;4988200;28;20410;-64
2024/01/18 04:39:42;;;;;;;40.22;20.98;;;;;;;-0.91;100.00;98888.00;4985009;28;20046;-65
2024/01/18 04:42:08;;;;;;;43.47;23.00;;;;;;;-0.90;100.00;98899.88;4985972;28;20030;-64
2024/01/18 04:44:34;;;;;;;47.00;22.77;;;;;;;-0.88;100.00;98906.66;4987762;28;20030;-64
2024/01/18 04:47:00;;;;;;;40.55;24.45;;;;;;;-0.88;100.00;98903.25;4985670;28;20041;-64
2024/01/18 04:49:25;;;;;;;42.00;23.92;;;;;;;-0.87;100.00;98905.81;4988574;28;20034;-64
2024/01/18 04:51:50;;;;;;;45.42;24.60;;;;;;;-0.87;100.00;98912.56;4987354;28;20053;-64
2024/01/18 04:54:16;;;;;;;44.70;24.65;;;;;;;-0.84;100.00;98915.97;4987173;28;20041;-64
2024/01/18 04:56:41;;;;;;;43.00;23.90;;;;;;;-0.85;100.00;98929.50;4993481;28;20120;-64
2024/01/18 04:59:08;;;;;;;37.03;20.50;;;;;;;-0.92;100.00;98921.81;4987388;28;20018;-64
2024/01/18 05:01:37;;;;;;;37.28;21.45;;;;;;;-0.98;100.00;98923.47;4994273;28;20042;-64
2024/01/18 05:04:04;;;;;;;32.78;18.73;;;;;;;-1.01;100.00;98918.38;4981941;28;20419;-64
2024/01/18 05:06:29;;;;;;;32.63;18.40;;;;;;;-1.06;100.00;98922.56;4986353;28;20060;-64
2024/01/18 05:08:55;;;;;;;32.72;17.92;;;;;;;-1.07;100.00;98927.59;4985082;28;20034;-65
2024/01/18 05:11:20;;;;;;;32.30;17.33;;;;;;;-1.07;100.00;98933.53;4987528;28;20098;-64
2024/01/18 05:13:46;;;;;;;34.38;17.85;;;;;;;-1.08;100.00;98936.06;4986725;28;20030;-64
2024/01/18 05:16:11;;;;;;;33.38;16.25;;;;;;;-1.08;100.00;98931.00;4989320;28;20037;-64
2024/01/18 05:18:36;;;;;;;39.28;18.98;;;;;;;-1.08;100.00;98933.53;4994985;28;20050;-64
2024/01/18 05:21:02;;;;;;;36.72;18.70;;;;;;;-1.05;100.00;98938.63;4989395;28;20125;-64
2024/01/18 05:23:27;;;;;;;34.42;18.75;;;;;;;-1.06;100.00;98936.94;4988975;28;20042;-64
2024/01/18 05:25:53;;;;;;;34.33;20.27;;;;;;;-1.04;100.00;98935.25;4984538;28;20128;-64
2024/01/18 05:28:18;;;;;;;36.28;19.25;;;;;;;-1.05;100.00;98931.88;4983072;28;20031;-64
2024/01/18 05:30:44;;;;;;;38.28;20.83;;;;;;;-1.04;100.00;98937.78;4989798;28;20041;-64
2024/01/18 05:33:10;;;;;;;37.17;21.58;;;;;;;-1.02;100.00;98936.94;4988552;28;20049;-64
2024/01/18 05:35:35;;;;;;;42.60;23.63;;;;;;;-0.99;100.00;98933.63;4989916;28;20038;-65
2024/01/18 05:38:01;;;;;;;41.42;21.10;;;;;;;-0.96;100.00;98944.59;4987289;28;20022;-64
2024/01/18 05:40:26;;;;;;;49.83;25.92;;;;;;;-0.94;100.00;98944.63;4986329;28;20149;-64
2024/01/18 05:42:51;;;;;;;46.88;23.60;;;;;;;-0.93;100.00;98953.94;4985105;28;20519;-64
2024/01/18 05:45:17;;;;;;;45.05;25.33;;;;;;;-0.89;100.00;98963.25;4988500;28;20042;-64
2024/01/18 05:47:42;;;;;;;55.65;29.75;;;;;;;-0.89;100.00;98970.88;4991494;28;20050;-64
2024/01/18 05:50:08;;;;;;;50.95;29.15;;;;;;;-0.88;100.00;98972.56;4989426;28;20037;-64
2024/01/18 05:52:34;;;;;;;48.45;27.15;;;;;;;-0.87;100.00;98981.03;4985383;28;20023;-64
2024/01/18 05:54:59;;;;;;;49.95;28.58;;;;;;;-0.87;100.00;98984.44;4983897;28;20125;-64
2024/01/18 05:57:25;;;;;;;50.15;28.40;;;;;;;-0.86;100.00;98977.66;4986954;28;20133;-64
2024/01/18 05:59:50;;;;;;;52.53;27.95;;;;;;;-0.84;100.00;98983.59;4989125;28;20049;-64
2024/01/18 06:02:16;;;;;;;55.28;28.92;;;;;;;-0.84;100.00;98989.53;4988615;28;20085;-64
2024/01/18 06:04:41;;;;;;;52.85;27.98;;;;;;;-0.84;100.00;98987.00;4988493;28;20042;-64
2024/01/18 06:07:07;;;;;;;49.15;28.08;;;;;;;-0.84;100.00;98992.06;4989264;28;20034;-65
2024/01/18 06:09:32;;;;;;;54.72;30.52;;;;;;;-0.84;100.00;98992.06;4988974;28;20039;-64
2024/01/18 06:11:57;;;;;;;48.83;28.20;;;;;;;-0.83;100.00;98988.66;4994798;28;20130;-64
2024/01/18 06:14:23;;;;;;;51.28;29.40;;;;;;;-0.81;100.00;98997.16;4992243;28;20036;-63
2024/01/18 06:16:48;;;;;;;52.67;29.48;;;;;;;-0.79;100.00;98994.63;4986986;28;20125;-64
2024/01/18 06:19:14;;;;;;;54.13;30.33;;;;;;;-0.79;100.00;99002.22;4991202;28;20042;-63
2024/01/18 06:21:39;;;;;;;59.38;32.78;;;;;;;-0.79;100.00;99003.09;4994556;28;20038;-64
2024/01/18 06:24:05;;;;;;;57.78;32.15;;;;;;;-0.80;100.00;99005.59;4988464;28;20379;-64
2024/01/18 06:26:30;;;;;;;51.83;30.55;;;;;;;-0.77;100.00;99014.09;4982117;28;20097;-65
2024/01/18 06:28:56;;;;;;;64.10;33.88;;;;;;;-0.76;100.00;99020.03;4991046;28;20525;-64
2024/01/18 06:31:27;;;;;;;55.75;32.17;;;;;;;-0.78;100.00;99020.03;4990007;28;20038;-64
2024/01/18 06:33:53;;;;;;;56.50;32.33;;;;;;;-0.80;100.00;99023.34;4987288;28;20081;-64
2024/01/18 06:36:19;;;;;;;58.38;33.25;;;;;;;-0.80;100.00;99041.09;4980787;28;20092;-64
2024/01/18 06:38:45;;;;;;;53.65;31.65;;;;;;;-0.80;100.00;99041.09;4993482;28;20483;-64
2024/01/18 06:41:11;;;;;;;58.70;30.90;;;;;;;-0.77;100.00;99044.53;4994650;28;20446;-64
2024/01/18 06:43:37;;;;;;;59.15;34.10;;;;;;;-0.77;100.00;99054.66;4988500;28;20146;-64
2024/01/18 06:46:02;;;;;;;64.60;35.00;;;;;;;-0.75;100.00;99058.06;4990082;28;20387;-64
2024/01/18 06:48:28;;;;;;;62.92;33.22;;;;;;;-0.76;100.00;99053.00;4987854;28;20043;-64
2024/01/18 06:50:53;;;;;;;61.30;32.90;;;;;;;-0.74;100.00;99056.38;4988054;28;20428;-64
2024/01/18 06:53:19;;;;;;;59.17;33.65;;;;;;;-0.75;100.00;99057.25;4994899;28;20055;-64
2024/01/18 06:55:44;;;;;;;58.03;32.28;;;;;;;-0.76;100.00;99055.53;4986491;28;20030;-64
2024/01/18 06:58:09;;;;;;;56.28;30.95;;;;;;;-0.75;100.00;99052.16;4995543;28;20048;-64
2024/01/18 07:00:35;;;;;;;52.55;30.67;;;;;;;-0.76;100.00;99061.47;4990238;28;20037;-65
2024/01/18 07:03:01;;;;;;;57.58;30.98;;;;;;;-0.75;100.00;99072.47;4990175;28;20038;-63
2024/01/18 07:05:26;;;;;;;56.08;31.83;;;;;;;-0.74;100.00;99071.59;4994913;28;20444;-64
2024/01/18 07:07:52;;;;;;;56.38;31.15;;;;;;;-0.72;100.00;99070.78;4988939;28;20042;-64
2024/01/18 07:10:23;;;;;;;58.65;32.20;;;;;;;-0.71;100.00;99072.47;4989811;28;20053;-64
2024/01/18 07:12:48;;;;;;;60.65;32.72;;;;;;;-0.69;100.00;99067.44;4990087;28;20034;-64
2024/01/18 07:15:14;;;;;;;63.58;33.33;;;;;;;-0.69;100.00;99070.81;4989522;28;20065;-64
2024/01/18 07:17:39;;;;;;;59.65;33.70;;;;;;;-0.69;100.00;99070.81;4992838;28;20038;-64
2024/01/18 07:20:06;;;;;;;61.28;32.53;;;;;;;-0.68;100.00;99077.59;4992638;28;20129;-64
2024/01/18 07:22:32;;;;;;;53.35;30.45;;;;;;;-0.67;100.00;99076.75;4991816;28;20041;-64
2024/01/18 07:24:57;;;;;;;61.20;32.80;;;;;;;-0.64;100.00;99076.78;4989882;28;20038;-64
2024/01/18 07:27:23;;;;;;;62.53;34.75;;;;;;;-0.62;100.00;99080.19;4987195;28;20550;-64
2024/01/18 07:29:49;;;;;;;60.63;33.80;;;;;;;-0.60;100.00;99088.66;4990535;28;20022;-64
2024/01/18 07:32:16;;;;;;;59.90;32.47;;;;;;;-0.56;100.00;99087.00;4993367;28;20491;-64
2024/01/18 07:34:41;;;;;;;56.88;33.45;;;;;;;-0.52;100.00;99084.50;4991551;28;20042;-64
2024/01/18 07:37:08;;;;;;;61.67;34.70;;;;;;;-0.54;100.00;99078.56;4999027;28;20100;-64
2024/01/18 07:39:34;;;;;;;60.42;33.28;;;;;;;-0.51;100.00;99086.19;4993826;28;20050;-64
2024/01/18 07:42:00;;;;;;;64.78;33.90;;;;;;;-0.49;100.00;99099.75;4997035;28;20514;-64
2024/01/18 07:44:27;;;;;;;65.53;34.65;;;;;;;-0.48;100.00;99109.06;4989744;28;20038;-66
2024/01/18 07:46:53;;;;;;;54.58;32.08;;;;;;;-0.43;100.00;99111.66;4993149;28;20034;-67
2024/01/18 07:49:18;;;;;;;64.07;32.70;;;;;;;-0.44;100.00;99115.03;4995617;28;20048;-67
2024/01/18 07:51:43;;;;;;;54.80;30.75;;;;;;;-0.44;100.00;99113.34;4994732;28;20050;-67
2024/01/18 07:54:09;;;;;;;64.25;34.15;;;;;;;-0.42;100.00;99108.25;4994913;28;20061;-67
2024/01/18 07:56:35;;;;;;;56.33;32.45;;;;;;;-0.42;100.00;99110.78;4987666;28;20068;-66
2024/01/18 07:59:00;;;;;;;62.38;32.45;;;;;;;-0.43;100.00;99109.97;4993224;28;20049;-67
2024/01/18 08:01:26;;;;;;;61.25;33.25;;;;;;;-0.42;100.00;99110.78;4992126;28;20038;-67
2024/01/18 08:03:51;;;;;;;57.85;33.65;;;;;;;-0.40;100.00;99119.28;4995646;28;20096;-67
2024/01/18 08:06:17;;;;;;;55.22;32.03;;;;;;;-0.36;100.00;99120.19;4988343;28;20125;-66
2024/01/18 08:08:42;;;;;;;56.10;32.33;;;;;;;-0.39;100.00;99126.06;4991387;28;20038;-66
2024/01/18 08:11:12;;;;;;;54.85;31.20;;;;;;;-0.36;100.00;99122.72;4990859;28;20034;-67
2024/01/18 08:13:38;;;;;;;55.15;30.83;;;;;;;-0.37;100.00;99129.47;4994103;28;20037;-66
2024/01/18 08:16:03;;;;;;;56.40;30.92;;;;;;;-0.33;100.00;99126.09;4990552;28;20045;-66
2024/01/18 08:18:29;;;;;;;54.72;30.40;;;;;;;-0.30;100.00;99131.22;4987750;28;20439;-67
2024/01/18 08:20:54;;;;;;;51.17;30.65;;;;;;;-0.30;100.00;99146.44;4988147;28;20033;-66
2024/01/18 08:23:22;;;;;;;65.97;32.58;;;;;;;-0.31;100.00;99152.38;4988465;28;20034;-67
2024/01/18 08:25:47;;;;;;;55.70;30.10;;;;;;;-0.30;100.00;99151.50;4988523;28;20157;-66
2024/01/18 08:28:13;;;;;;;60.22;30.63;;;;;;;-0.28;100.00;99152.41;4989142;28;20568;-66
2024/01/18 08:30:40;;;;;;;58.47;31.02;;;;;;;-0.27;100.00;99138.84;4988426;28;20038;-67
2024/01/18 08:33:05;;;;;;;57.45;32.10;;;;;;;-0.26;100.00;99157.47;4989740;28;20577;-67
2024/01/18 08:35:30;;;;;;;61.65;31.13;;;;;;;-0.19;100.00;99156.69;4993942;28;20479;-66
2024/01/18 08:37:56;;;;;;;54.30;30.40;;;;;;;-0.14;100.00;99150.81;4993132;28;20549;-66
2024/01/18 08:40:23;;;;;;;57.65;28.77;;;;;;;-0.10;100.00;99160.19;4993680;28;20054;-67
2024/01/18 08:42:49;;;;;;;50.63;30.00;;;;;;;-0.07;100.00;99156.81;4989073;28;20035;-66
2024/01/18 08:45:14;;;;;;;56.88;29.52;;;;;;;-0.08;100.00;99161.03;4986933;28;20038;-66
2024/01/18 08:47:40;;;;;;;54.97;30.05;;;;;;;-0.15;100.00;99164.34;4998690;28;20026;-66
2024/01/18 08:50:06;;;;;;;58.30;31.58;;;;;;;-0.19;100.00;99170.25;4989786;28;20069;-67
2024/01/18 08:52:31;;;;;;;53.45;29.75;;;;;;;-0.22;100.00;99175.31;4990581;28;20038;-66
2024/01/18 08:54:57;;;;;;;54.97;29.48;;;;;;;-0.30;100.00;99176.06;4985689;28;20035;-67
2024/01/18 08:57:22;;;;;;;48.05;28.17;;;;;;;-0.38;100.00;99192.06;4986463;28;20081;-67
2024/01/18 08:59:48;;;;;;;53.42;29.35;;;;;;;-0.42;100.00;99205.56;4992211;28;20036;-67
2024/01/18 09:02:14;;;;;;;56.38;30.70;;;;;;;-0.44;100.00;99211.47;4993859;28;20096;-67
2024/01/18 09:04:39;;;;;;;55.15;30.75;;;;;;;-0.46;100.00;99221.59;4994660;28;20708;-67
2024/01/18 09:07:05;;;;;;;55.03;31.33;;;;;;;-0.42;100.00;99232.63;4983040;28;20030;-67
2024/01/18 09:09:30;;;;;;;55.28;30.17;;;;;;;-0.36;100.00;99234.41;4986315;28;20133;-67
2024/01/18 09:11:56;;;;;;;64.20;31.70;;;;;;;-0.30;100.00;99235.28;4988155;28;20088;-66
2024/01/18 09:14:23;;;;;;;59.58;32.67;;;;;;;-0.17;100.00;99237.13;4986782;28;20050;-67
2024/01/18 09:16:49;;;;;;;58.78;31.35;;;;;;;-0.11;100.00;99246.47;4988305;28;20458;-66
2024/01/18 09:19:14;;;;;;;61.10;32.67;;;;;;;0.05;100.00;99256.78;4992314;28;20031;-66
2024/01/18 09:21:44;;;;;;;57.50;31.98;;;;;;;0.23;100.00;99258.66;4981856;28;20094;-67
2024/01/18 09:24:10;;;;;;;59.22;33.95;;;;;;;0.39;100.00;99268.09;4991662;28;20417;-66
2024/01/18 09:26:36;;;;;;;53.22;31.63;;;;;;;0.45;100.00;99263.06;4995479;28;20038;-66
2024/01/18 09:29:02;;;;;;;57.63;32.10;;;;;;;0.41;100.00;99268.13;4979133;28;20728;-67
2024/01/18 09:31:28;;;;;;;56.53;30.45;;;;;;;0.37;100.00;99264.72;4988792;28;20038;-67
2024/01/18 09:33:53;;;;;;;55.63;31.77;;;;;;;0.37;100.00;99271.47;4988066;28;20050;-67
2024/01/18 09:36:19;;;;;;;55.42;30.05;;;;;;;0.33;100.00;99280.75;4988068;28;20593;-66
2024/01/18 09:38:46;;;;;;;59.00;31.40;;;;;;;0.34;100.00;99291.78;4986348;28;20066;-66
2024/01/18 09:41:14;;;;;;;52.53;31.10;;;;;;;0.47;100.00;99298.69;4987795;28;20134;-66
2024/01/18 09:43:41;;;;;;;54.35;32.00;;;;;;;0.48;100.00;99297.81;4987839;28;20022;-66
2024/01/18 09:46:07;;;;;;;53.20;30.10;;;;;;;0.60;100.00;99297.91;4991888;28;20039;-66
2024/01/18 09:48:34;;;;;;;55.25;32.72;;;;;;;0.58;100.00;99302.16;4987907;28;20129;-66
2024/01/18 09:51:00;;;;;;;59.05;31.73;;;;;;;0.65;100.00;99296.25;4997330;28;20034;-66
2024/01/18 09:53:26;;;;;;;49.60;30.88;;;;;;;0.62;100.00;99297.09;4993482;28;20465;-67
2024/01/18 09:55:54;;;;;;;51.95;29.75;;;;;;;0.46;100.00;99314.75;4988551;28;20388;-66
2024/01/18 09:58:19;;;;;;;54.95;29.38;;;;;;;0.50;100.00;99312.25;4987229;28;20497;-67
2024/01/18 10:00:54;;;;;;;56.42;30.95;;;;;;;0.55;100.00;99330.09;4981046;28;20034;-66
2024/01/18 10:03:19;;;;;;;54.08;30.33;;;;;;;0.54;100.00;99330.91;4979523;28;20038;-67
2024/01/18 10:05:46;;;;;;;54.15;30.40;;;;;;;0.70;100.00;99331.06;4985473;28;20365;-67
2024/01/18 10:08:12;;;;;;;56.15;31.60;;;;;;;0.71;100.00;99342.94;4986934;28;20040;-67
2024/01/18 10:10:37;;;;;;;60.90;31.40;;;;;;;0.80;100.00;99337.06;4989420;28;20427;-67
2024/01/18 10:13:03;;;;;;;64.70;31.55;;;;;;;1.02;100.00;99341.47;4992668;28;20031;-67
2024/01/18 10:15:32;;;;;;;58.75;32.40;;;;;;;1.06;100.00;99344.91;4991107;28;20042;-67
2024/01/18 10:17:58;;;;;;;62.05;31.98;;;;;;;0.94;100.00;99348.22;4985774;28;20030;-67
2024/01/18 10:20:24;;;;;;;56.85;31.90;;;;;;;0.99;100.00;99364.34;4991342;28;20599;-67
2024/01/18 10:22:49;;;;;;;58.20;31.45;;;;;;;1.15;100.00;99345.78;4985520;28;20038;-66
2024/01/18 10:25:16;;;;;;;52.88;30.70;;;;;;;0.92;100.00;99362.59;4986648;28;20023;-67
2024/01/18 10:27:44;;;;;;;67.72;31.02;;;;;;;0.93;100.00;99361.75;4990365;28;20219;-67
2024/01/18 10:30:15;;;;;;;51.47;29.50;;;;;;;0.90;100.00;99371.91;4992928;28;20716;-67
2024/01/18 10:32:43;;;;;;;49.17;29.00;;;;;;;0.72;100.00;99376.84;4990870;28;20117;-66
2024/01/18 10:35:19;;;;;;;57.85;29.92;;;;;;;0.75;100.00;99389.59;4995975;28;20049;-67
2024/01/18 10:37:45;;;;;;;59.42;32.70;;;;;;;0.76;100.00;99396.38;5000340;28;20027;-67
2024/01/18 10:40:10;;;;;;;52.22;31.30;;;;;;;0.82;100.00;99398.97;4987002;28;20080;-67
2024/01/18 10:42:36;;;;;;;50.17;30.55;;;;;;;0.92;100.00;99405.84;4979593;28;20507;-67
2024/01/18 10:45:02;;;;;;;53.90;32.05;;;;;;;0.94;100.00;99403.31;4990837;28;20038;-67
2024/01/18 10:47:29;;;;;;;57.88;31.77;;;;;;;0.97;100.00;99405.88;4989614;28;20061;-67
2024/01/18 10:49:55;;;;;;;56.75;30.95;;;;;;;0.76;100.00;99405.69;4993906;28;20075;-67
2024/01/18 10:52:22;;;;;;;52.50;31.45;;;;;;;0.79;100.00;99414.22;4989373;28;20040;-67
2024/01/18 10:54:49;;;;;;;56.50;31.08;;;;;;;0.83;100.00;99409.97;4984621;28;20042;-67
2024/01/18 10:57:14;;;;;;;53.65;31.20;;;;;;;0.76;100.00;99406.56;4987331;28;20030;-67
2024/01/18 10:59:39;;;;;;;60.97;33.08;;;;;;;0.80;100.00;99423.53;4988275;28;20038;-67
2024/01/18 11:02:05;;;;;;;62.05;34.17;;;;;;;0.85;100.00;99423.59;5002238;28;20080;-66
2024/01/18 11:04:31;;;;;;;56.55;32.33;;;;;;;0.90;100.00;99424.47;4997256;28;20040;-67